Time;durP1;ratioP1;P1;durP2;ratioP2;P2;SDS_P1;SDS_P2;PMS_P1;PMS_P2;Temp;Humidity;BMP_temperature;BMP_pressure;BME280_temperature;BME280_humidity;BME280_pressure;Samples;Min_cycle;Max_cycle;Signal;HPM_P1;HPM_P2
2021/12/16 00:05:44;;;;;;;57.20;25.55;;;;;;;7.27;83.78;102163.31;8294933;34;20523;-74
2021/12/16 00:10:55;;;;;;;53.03;25.33;;;;;;;7.25;83.90;102161.63;8504139;33;21280;-74
2021/12/16 00:32:17;;;;;;;54.42;25.40;;;;;;;7.47;82.40;102162.53;8523236;33;20205;-76
2021/12/16 00:37:20;;;;;;;59.55;26.42;;;;;;;7.56;81.95;102165.75;8543795;33;20179;-75
2021/12/16 00:42:36;;;;;;;59.25;26.15;;;;;;;7.45;82.33;102166.19;8537486;33;21023;-76
2021/12/16 00:47:49;;;;;;;56.67;26.35;;;;;;;7.44;81.95;102167.13;8516555;33;20473;-76
2021/12/16 00:58:18;;;;;;;55.22;26.70;;;;;;;7.22;83.17;102167.97;8519859;33;20443;-76
2021/12/16 01:03:29;;;;;;;55.05;25.45;;;;;;;7.18;83.46;102169.00;8545780;33;20144;-75
2021/12/16 01:08:48;;;;;;;58.67;25.63;;;;;;;7.35;83.38;102163.03;8513989;33;20422;-76
2021/12/16 01:36:07;;;;;;;56.85;24.95;;;;;;;7.17;83.57;102187.78;8537123;33;20149;-75
2021/12/16 01:41:53;;;;;;;57.15;23.65;;;;;;;7.26;83.26;102190.97;8537794;33;20722;-76
2021/12/16 01:47:14;;;;;;;51.78;24.05;;;;;;;7.16;83.86;102194.03;8564197;33;20133;-75
2021/12/16 01:52:40;;;;;;;57.03;25.85;;;;;;;7.11;83.97;102191.56;8557664;33;20148;-74
2021/12/16 01:57:48;;;;;;;57.30;26.77;;;;;;;7.17;84.01;102185.13;8514894;33;21476;-75
2021/12/16 02:02:59;;;;;;;54.88;24.73;;;;;;;7.09;84.60;102190.75;8521232;33;20423;-76
2021/12/16 02:08:23;;;;;;;62.03;26.98;;;;;;;7.04;84.84;102184.69;8538649;33;20513;-75
2021/12/16 02:29:46;;;;;;;57.58;26.52;;;;;;;6.82;86.20;102212.16;8524593;33;20396;-76
2021/12/16 02:35:00;;;;;;;59.53;24.83;;;;;;;6.73;86.11;102208.97;8524173;33;20751;-76
2021/12/16 02:40:10;;;;;;;57.08;24.67;;;;;;;6.82;85.58;102197.94;8549468;33;20266;-76
2021/12/16 02:50:36;;;;;;;52.30;22.52;;;;;;;6.67;86.09;102199.38;8523962;33;20152;-76
2021/12/16 02:55:40;;;;;;;63.55;27.58;;;;;;;6.85;85.78;102214.72;8525274;33;20272;-75
2021/12/16 03:00:50;;;;;;;74.03;30.98;;;;;;;6.79;85.82;102211.41;8524789;33;20135;-76
2021/12/16 03:05:53;;;;;;;59.97;26.77;;;;;;;6.98;85.35;102219.66;8525341;33;20371;-75
2021/12/16 03:11:19;;;;;;;61.83;27.77;;;;;;;7.10;85.03;102223.69;8549493;33;20533;-75
2021/12/16 03:16:29;;;;;;;69.07;29.25;;;;;;;6.84;85.66;102221.00;8551422;33;20147;-75
2021/12/16 03:21:39;;;;;;;62.42;26.50;;;;;;;6.82;86.01;102230.88;8531270;33;20538;-75
2021/12/16 03:32:23;;;;;;;64.38;26.38;;;;;;;6.73;85.73;102223.19;8525599;33;20466;-75
2021/12/16 03:37:29;;;;;;;62.60;25.05;;;;;;;6.67;86.20;102228.75;8487115;33;20430;-75
2021/12/16 03:42:38;;;;;;;55.90;24.73;;;;;;;6.60;86.55;102228.09;8481150;33;20222;-75
2021/12/16 03:47:47;;;;;;;56.80;26.58;;;;;;;6.63;86.70;102224.44;8491562;33;20440;-75
2021/12/16 03:52:52;;;;;;;54.08;23.70;;;;;;;6.94;85.13;102229.63;8462568;33;20168;-75
2021/12/16 03:57:57;;;;;;;50.30;26.35;;;;;;;6.91;85.32;102227.06;8466563;33;20621;-75
2021/12/16 04:03:05;;;;;;;62.75;25.63;;;;;;;6.93;85.29;102221.63;8517231;33;20507;-76
2021/12/16 04:08:15;;;;;;;58.47;23.80;;;;;;;6.82;85.83;102217.50;8521357;33;20254;-74
2021/12/16 04:13:25;;;;;;;67.00;26.60;;;;;;;6.81;86.78;102214.91;8521379;33;20144;-75
2021/12/16 04:18:34;;;;;;;63.40;27.02;;;;;;;6.79;86.49;102216.75;8521495;33;20526;-75
2021/12/16 04:23:58;;;;;;;65.28;28.45;;;;;;;6.83;86.56;102221.09;8521297;33;20175;-75
2021/12/16 04:29:05;;;;;;;69.65;28.50;;;;;;;6.87;86.83;102224.50;8520967;33;20466;-75
2021/12/16 04:34:08;;;;;;;71.85;30.85;;;;;;;6.72;87.62;102224.13;8521472;33;20144;-76
2021/12/16 04:39:17;;;;;;;69.90;29.45;;;;;;;6.99;86.28;102235.66;8531414;33;20140;-74
2021/12/16 04:44:25;;;;;;;68.03;30.25;;;;;;;6.85;87.15;102244.13;8526474;33;20407;-77
2021/12/16 04:49:30;;;;;;;65.60;26.45;;;;;;;6.95;86.20;102247.38;8548766;33;20862;-75
2021/12/16 04:54:34;;;;;;;70.28;30.50;;;;;;;6.64;87.59;102252.91;8544971;33;20484;-77
2021/12/16 04:59:40;;;;;;;75.22;31.10;;;;;;;6.54;87.65;102255.03;8517510;33;20150;-76
2021/12/16 05:04:44;;;;;;;67.38;29.80;;;;;;;6.89;86.72;102262.78;8519619;33;20140;-75
2021/12/16 05:15:16;;;;;;;67.68;29.17;;;;;;;6.71;87.45;102258.91;8466731;33;20190;-76
2021/12/16 05:20:25;;;;;;;72.43;29.17;;;;;;;6.86;87.71;102269.06;8515905;33;20497;-75
2021/12/16 05:25:41;;;;;;;70.03;31.70;;;;;;;6.91;87.19;102277.81;8521049;33;21751;-75
2021/12/16 05:30:48;;;;;;;72.65;30.52;;;;;;;6.82;87.66;102283.44;8545614;33;20209;-75
2021/12/16 05:35:54;;;;;;;76.82;29.48;;;;;;;6.71;87.69;102288.28;8522145;33;20916;-75
2021/12/16 05:40:59;;;;;;;74.25;29.13;;;;;;;6.79;87.60;102289.75;8547550;33;20416;-75
2021/12/16 05:46:11;;;;;;;72.28;31.20;;;;;;;6.69;88.23;102290.13;8525691;33;20468;-74
2021/12/16 05:51:22;;;;;;;75.38;28.38;;;;;;;6.85;87.50;102288.66;8526878;33;20486;-75
2021/12/16 05:56:25;;;;;;;75.90;31.98;;;;;;;6.82;88.10;102299.47;8529222;33;20240;-75
2021/12/16 06:01:34;;;;;;;67.18;29.35;;;;;;;7.00;86.65;102309.53;8530250;33;20920;-75
2021/12/16 06:06:38;;;;;;;78.20;30.35;;;;;;;6.93;87.05;102318.69;8551381;33;20854;-76
2021/12/16 06:11:43;;;;;;;77.85;30.10;;;;;;;6.72;88.26;102317.63;8526427;33;20408;-75
2021/12/16 06:22:30;;;;;;;69.30;27.55;;;;;;;6.81;87.81;102317.31;8520246;33;21026;-75
2021/12/16 06:27:35;;;;;;;78.38;29.00;;;;;;;6.68;87.68;102325.78;8540108;33;22204;-76
2021/12/16 06:32:40;;;;;;;80.25;32.25;;;;;;;7.02;86.85;102337.09;8540149;33;20442;-76
2021/12/16 06:37:43;;;;;;;73.07;29.48;;;;;;;7.05;87.20;102345.00;8519680;33;20140;-75
2021/12/16 06:42:57;;;;;;;74.68;31.95;;;;;;;7.19;86.20;102349.88;8523462;33;20484;-75
2021/12/16 06:48:11;;;;;;;80.22;31.20;;;;;;;7.15;85.76;102356.22;8520111;33;20464;-75
2021/12/16 06:53:24;;;;;;;77.18;29.23;;;;;;;7.20;85.98;102358.75;8539244;33;20532;-76
2021/12/16 06:58:33;;;;;;;77.50;29.15;;;;;;;7.13;86.21;102363.44;8536572;33;20235;-76
2021/12/16 07:03:47;;;;;;;78.50;31.60;;;;;;;7.04;86.47;102369.97;8537898;33;20511;-75
2021/12/16 07:08:53;;;;;;;76.43;29.50;;;;;;;6.90;86.62;102366.91;8540114;33;21214;-75
2021/12/16 07:14:00;;;;;;;79.47;30.30;;;;;;;6.95;86.92;102370.28;8509784;33;20425;-75
2021/12/16 07:19:04;;;;;;;75.78;29.50;;;;;;;7.20;86.29;102375.66;8511553;33;20641;-76
2021/12/16 07:24:11;;;;;;;76.25;29.83;;;;;;;7.08;86.60;102389.47;8467861;33;20509;-76
2021/12/16 07:29:15;;;;;;;72.05;28.80;;;;;;;7.24;85.96;102387.09;8455728;33;20563;-77
2021/12/16 07:34:19;;;;;;;67.15;28.80;;;;;;;7.35;85.40;102395.66;8444500;33;20213;-77
2021/12/16 07:39:28;;;;;;;68.15;28.42;;;;;;;7.21;85.88;102404.16;8456574;33;20555;-76
2021/12/16 07:44:32;;;;;;;82.55;31.38;;;;;;;7.19;86.17;102413.16;8515776;33;20438;-76
2021/12/16 07:49:43;;;;;;;73.63;29.10;;;;;;;7.27;85.88;102429.81;8488686;33;20411;-76
2021/12/16 07:54:46;;;;;;;62.65;26.42;;;;;;;7.24;86.24;102430.78;8490998;33;20194;-77
2021/12/16 07:59:49;;;;;;;70.45;28.98;;;;;;;7.38;85.31;102426.75;8478604;33;20430;-77
2021/12/16 08:04:54;;;;;;;71.05;28.77;;;;;;;7.28;85.59;102436.88;8484131;33;20506;-76
2021/12/16 08:09:57;;;;;;;76.10;28.45;;;;;;;7.23;86.10;102445.06;8499017;33;20188;-77
2021/12/16 08:15:01;;;;;;;72.38;26.90;;;;;;;7.20;85.98;102453.19;8495781;33;20431;-75
2021/12/16 08:20:08;;;;;;;70.70;29.55;;;;;;;7.05;86.82;102461.72;8488968;33;21054;-76
2021/12/16 08:25:12;;;;;;;75.65;27.02;;;;;;;7.22;86.72;102470.03;8511742;33;20145;-76
2021/12/16 08:30:19;;;;;;;74.00;30.52;;;;;;;7.24;86.77;102475.31;8486421;33;20214;-74
2021/12/16 08:35:24;;;;;;;67.25;28.92;;;;;;;7.21;87.01;102484.34;8483558;33;20192;-76
2021/12/16 08:40:27;;;;;;;68.82;27.92;;;;;;;6.90;88.49;102484.47;8482396;33;20157;-76
2021/12/16 08:45:33;;;;;;;78.32;30.33;;;;;;;6.97;88.54;102475.34;8479191;33;20302;-76
2021/12/16 08:50:44;;;;;;;72.35;28.50;;;;;;;7.04;89.03;102476.88;8480199;33;20453;-76
2021/12/16 08:55:51;;;;;;;73.20;29.25;;;;;;;7.18;88.63;102467.50;8480664;33;20295;-76
2021/12/16 09:00:59;;;;;;;71.47;29.15;;;;;;;7.05;89.61;102477.78;8502200;33;21057;-75
2021/12/16 09:06:04;;;;;;;74.40;29.50;;;;;;;7.10;89.49;102472.25;8514026;33;20518;-75
2021/12/16 09:11:09;;;;;;;80.55;31.17;;;;;;;7.32;88.45;102467.91;8515290;33;20634;-77
2021/12/16 09:16:19;;;;;;;69.68;26.13;;;;;;;7.27;88.99;102470.78;8520037;33;20298;-76
2021/12/16 09:21:28;;;;;;;64.03;26.42;;;;;;;7.24;89.07;102460.19;8497439;33;20620;-76
2021/12/16 09:26:31;;;;;;;63.45;26.75;;;;;;;7.56;87.88;102458.16;8545757;33;20140;-76
2021/12/16 09:31:35;;;;;;;68.70;29.02;;;;;;;7.88;87.45;102472.22;8541588;33;20497;-76
2021/12/16 09:36:43;;;;;;;67.30;28.45;;;;;;;7.61;86.63;102471.41;8502305;33;20446;-76
2021/12/16 09:41:50;;;;;;;64.22;27.38;;;;;;;7.63;87.15;102485.59;8494512;33;20426;-76
2021/12/16 09:46:57;;;;;;;56.92;25.10;;;;;;;7.52;87.25;102501.16;8493758;33;21082;-76
2021/12/16 09:52:05;;;;;;;61.58;26.65;;;;;;;7.69;86.38;102502.28;8492343;33;20424;-76
2021/12/16 09:57:08;;;;;;;59.20;23.73;;;;;;;7.56;86.43;102502.78;8492313;33;20298;-76
2021/12/16 10:02:16;;;;;;;60.33;24.02;;;;;;;7.73;85.87;102513.75;8487095;33;20447;-76
2021/12/16 10:07:27;;;;;;;55.55;24.52;;;;;;;7.73;86.06;102514.66;8490568;33;20859;-77
2021/12/16 10:12:36;;;;;;;61.42;24.05;;;;;;;7.86;84.98;102523.09;8491127;33;20191;-76
2021/12/16 10:17:42;;;;;;;61.65;24.83;;;;;;;7.88;84.94;102533.75;8514495;33;20427;-77
2021/12/16 10:22:48;;;;;;;63.00;22.65;;;;;;;7.88;84.74;102525.72;8523456;33;20195;-75
2021/12/16 10:28:06;;;;;;;60.08;24.35;;;;;;;7.75;84.68;102525.28;8512498;33;20145;-77
2021/12/16 10:33:23;;;;;;;57.30;25.60;;;;;;;7.55;85.63;102536.69;8496374;33;20419;-77
2021/12/16 10:38:27;;;;;;;64.22;26.85;;;;;;;7.90;84.67;102531.91;8541951;33;20251;-75
2021/12/16 10:43:35;;;;;;;59.55;26.27;;;;;;;8.00;84.12;102540.47;8535338;33;20457;-75
2021/12/16 10:48:42;;;;;;;60.10;25.55;;;;;;;7.84;84.63;102534.78;8534884;33;20593;-75
2021/12/16 10:54:16;;;;;;;67.35;27.10;;;;;;;7.86;84.71;102549.00;8537848;33;20446;-76
2021/12/16 10:59:26;;;;;;;63.00;26.13;;;;;;;7.77;85.41;102552.88;8538474;33;20504;-76
2021/12/16 11:04:36;;;;;;;66.05;26.45;;;;;;;7.90;85.85;102547.97;8540556;33;20195;-75
2021/12/16 11:15:24;;;;;;;56.97;25.58;;;;;;;7.83;86.19;102552.66;8744496;32;20516;-76
2021/12/16 11:20:35;;;;;;;61.45;26.77;;;;;;;7.63;87.24;102544.44;8681085;33;20243;-76
2021/12/16 11:25:41;;;;;;;59.22;25.40;;;;;;;7.69;88.44;102549.56;8680164;33;20871;-76
2021/12/16 11:30:53;;;;;;;61.67;24.45;;;;;;;7.56;88.68;102546.44;8680349;33;20188;-75
2021/12/16 11:36:01;;;;;;;59.63;25.17;;;;;;;8.02;88.10;102552.88;8684909;33;20366;-76
2021/12/16 11:41:30;;;;;;;62.17;26.55;;;;;;;8.15;87.45;102551.50;8679385;33;20263;-76
2021/12/16 11:46:40;;;;;;;66.50;26.23;;;;;;;8.18;87.04;102554.06;8699534;33;20656;-76
2021/12/16 11:51:57;;;;;;;62.10;25.48;;;;;;;7.91;87.14;102561.28;8675963;33;20163;-76
2021/12/16 11:57:10;;;;;;;66.72;27.52;;;;;;;8.23;86.45;102571.75;8679849;33;20191;-76
2021/12/16 12:02:27;;;;;;;63.58;26.23;;;;;;;8.33;86.14;102568.69;8679437;33;20192;-76
2021/12/16 12:07:40;;;;;;;56.30;24.67;;;;;;;8.31;86.06;102569.66;8676690;33;20557;-75
2021/12/16 12:12:47;;;;;;;62.42;25.48;;;;;;;8.10;86.65;102561.50;8677736;33;20285;-76
2021/12/16 12:17:56;;;;;;;57.53;26.85;;;;;;;8.21;86.50;102560.25;8679385;33;20192;-76
2021/12/16 12:23:01;;;;;;;63.05;27.50;;;;;;;8.48;85.89;102551.22;8672366;33;20181;-76
2021/12/16 12:28:04;;;;;;;63.78;25.65;;;;;;;8.06;86.85;102556.28;8661125;33;20254;-75
2021/12/16 12:33:08;;;;;;;63.22;25.13;;;;;;;8.45;85.74;102561.09;8660162;33;20447;-75
2021/12/16 12:38:12;;;;;;;56.90;24.23;;;;;;;8.53;85.34;102572.44;8659625;33;20246;-75
2021/12/16 12:43:16;;;;;;;56.58;23.98;;;;;;;8.62;84.10;102566.75;8659840;33;22286;-76
2021/12/16 12:48:21;;;;;;;56.03;22.80;;;;;;;8.59;84.38;102569.56;8659662;33;20208;-76
2021/12/16 12:53:31;;;;;;;51.63;24.10;;;;;;;8.82;83.92;102574.88;8659420;33;20444;-75
2021/12/16 12:58:36;;;;;;;56.17;23.60;;;;;;;8.86;83.69;102575.66;8657467;33;20935;-76
2021/12/16 13:03:41;;;;;;;57.75;24.70;;;;;;;8.77;83.15;102567.97;8656859;33;20176;-75
2021/12/16 13:08:47;;;;;;;53.67;23.88;;;;;;;8.78;83.25;102583.13;8659840;33;20257;-75
2021/12/16 13:14:03;;;;;;;56.85;23.25;;;;;;;8.81;82.67;102562.44;8658643;33;20657;-76
2021/12/16 13:25:11;;;;;;;52.40;22.98;;;;;;;8.85;82.56;102571.22;8659617;33;20192;-76
2021/12/16 13:30:30;;;;;;;54.17;22.33;;;;;;;8.89;82.77;102566.63;8656852;33;20318;-76
2021/12/16 13:35:47;;;;;;;60.38;22.40;;;;;;;8.92;82.48;102561.16;8657954;33;20151;-76
2021/12/16 13:40:51;;;;;;;56.90;23.15;;;;;;;8.83;82.55;102549.84;8658317;33;20531;-76
2021/12/16 13:46:19;;;;;;;47.20;21.85;;;;;;;8.80;82.60;102538.34;8658488;33;20188;-75
2021/12/16 14:02:33;;;;;;;51.28;22.20;;;;;;;8.65;83.20;102533.63;8685224;33;20249;-76
2021/12/16 14:07:55;;;;;;;48.05;20.58;;;;;;;8.52;83.71;102538.56;8668371;33;20152;-76
2021/12/16 14:25:09;;;;;;;50.75;22.38;;;;;;;8.58;83.58;102541.91;8655741;33;20338;-76
2021/12/16 14:35:52;;;;;;;53.60;21.50;;;;;;;8.63;82.73;102544.38;8657001;33;20717;-75
2021/12/16 14:41:08;;;;;;;47.28;22.67;;;;;;;8.49;83.27;102541.38;8654810;33;20176;-76
2021/12/16 14:46:11;;;;;;;56.55;23.20;;;;;;;8.35;83.67;102555.25;8671591;33;20187;-76
2021/12/16 14:51:15;;;;;;;55.92;23.38;;;;;;;8.37;83.86;102561.41;8652774;33;20460;-75
2021/12/16 14:56:25;;;;;;;53.47;22.60;;;;;;;8.35;83.97;102561.47;8655598;33;20385;-75
2021/12/16 15:01:33;;;;;;;53.92;23.50;;;;;;;8.54;83.53;102574.22;8655944;33;20202;-75
2021/12/16 15:06:45;;;;;;;51.72;23.13;;;;;;;8.58;83.01;102584.75;8656721;33;20436;-76
2021/12/16 15:11:59;;;;;;;50.17;22.35;;;;;;;8.63;83.21;102586.38;8677840;33;20196;-76
2021/12/16 15:17:10;;;;;;;45.13;21.27;;;;;;;8.59;83.64;102599.03;8655665;33;20249;-76
2021/12/16 15:43:44;;;;;;;43.60;20.63;;;;;;;8.53;83.48;102618.00;8655321;33;20452;-76
2021/12/16 15:48:51;;;;;;;53.72;24.45;;;;;;;8.56;83.45;102615.22;8656007;33;20721;-76
2021/12/16 15:53:58;;;;;;;50.72;22.58;;;;;;;8.51;83.40;102631.47;8654292;33;20448;-76
2021/12/16 15:59:09;;;;;;;55.58;24.52;;;;;;;8.42;83.59;102622.84;8657236;33;20260;-77
2021/12/16 16:04:17;;;;;;;48.28;22.85;;;;;;;8.42;83.57;102633.53;8642828;33;20612;-77
2021/12/16 16:09:20;;;;;;;54.22;23.15;;;;;;;8.44;84.00;102643.28;8660457;33;20184;-77
2021/12/16 16:14:28;;;;;;;50.28;22.85;;;;;;;8.47;83.73;102656.59;8660473;33;20193;-76
2021/12/16 16:19:37;;;;;;;60.03;26.00;;;;;;;8.39;83.74;102655.97;8659684;33;20169;-77
2021/12/16 16:24:44;;;;;;;52.35;24.52;;;;;;;8.34;83.67;102655.28;8658390;33;20446;-77
2021/12/16 16:29:52;;;;;;;62.22;25.77;;;;;;;8.34;83.76;102657.97;8659881;33;20236;-76
2021/12/16 16:34:58;;;;;;;56.63;27.05;;;;;;;8.37;83.63;102677.47;8630796;33;21054;-76
2021/12/16 16:40:08;;;;;;;54.65;25.77;;;;;;;8.45;84.00;102677.19;8660800;33;20557;-76
2021/12/16 16:45:19;;;;;;;60.67;25.88;;;;;;;8.44;83.74;102679.91;8657840;33;20188;-76
2021/12/16 16:50:25;;;;;;;61.60;25.27;;;;;;;8.36;83.70;102675.72;8658143;33;20138;-76
2021/12/16 16:55:33;;;;;;;66.40;26.92;;;;;;;8.32;83.78;102689.25;8659402;33;20188;-76
2021/12/16 17:00:43;;;;;;;60.85;27.45;;;;;;;8.34;83.90;102685.59;8645800;33;21588;-76
2021/12/16 17:05:52;;;;;;;64.70;26.08;;;;;;;8.29;83.99;102679.53;8660301;33;20222;-76
2021/12/16 17:11:01;;;;;;;60.20;26.42;;;;;;;8.31;84.05;102691.06;8660493;33;20247;-76
2021/12/16 17:21:36;;;;;;;62.67;25.95;;;;;;;8.28;84.00;102711.72;8659860;33;20145;-76
2021/12/16 17:26:43;;;;;;;62.33;26.20;;;;;;;8.26;84.07;102717.13;8658707;33;20184;-76
2021/12/16 17:31:51;;;;;;;57.83;26.60;;;;;;;8.14;84.22;102714.84;8651049;33;20192;-77
2021/12/16 17:36:59;;;;;;;65.22;28.50;;;;;;;8.17;84.30;102721.00;8656794;33;20191;-76
2021/12/16 17:42:08;;;;;;;66.68;29.20;;;;;;;8.27;84.43;102721.56;8658369;33;20184;-76
2021/12/16 17:47:19;;;;;;;66.88;29.15;;;;;;;8.35;84.59;102723.97;8658963;33;20207;-76
2021/12/16 17:52:26;;;;;;;70.10;28.73;;;;;;;8.28;84.04;102722.41;8657792;33;20148;-77
2021/12/16 17:57:33;;;;;;;58.80;25.48;;;;;;;8.22;84.16;102719.97;8658083;33;20193;-76
2021/12/16 18:02:45;;;;;;;63.92;27.23;;;;;;;8.09;84.24;102725.75;8658374;33;20636;-76
2021/12/16 18:07:49;;;;;;;62.08;26.92;;;;;;;8.13;84.48;102713.13;8657585;33;20184;-76
2021/12/16 18:12:53;;;;;;;62.22;27.20;;;;;;;8.18;84.56;102724.56;8658908;33;20263;-77
2021/12/16 18:18:03;;;;;;;63.17;26.17;;;;;;;8.13;84.27;102721.16;8656841;33;20157;-76
2021/12/16 18:23:14;;;;;;;65.68;27.80;;;;;;;7.97;85.20;102731.50;8657161;33;21670;-77
2021/12/16 18:28:22;;;;;;;61.20;27.40;;;;;;;8.12;84.34;102739.03;8648630;33;20721;-77
2021/12/16 18:33:37;;;;;;;57.97;27.38;;;;;;;8.04;84.84;102741.09;8658003;33;20160;-77
2021/12/16 18:38:48;;;;;;;63.28;28.17;;;;;;;8.13;84.77;102759.50;8657613;33;20215;-77
2021/12/16 18:43:52;;;;;;;64.82;28.55;;;;;;;8.22;84.45;102754.78;8658517;33;20618;-77
2021/12/16 18:49:02;;;;;;;67.93;28.30;;;;;;;8.25;84.37;102757.34;8657816;33;20188;-77
2021/12/16 18:59:26;;;;;;;63.57;25.43;;;;;;;8.24;84.19;102751.13;8657640;33;20983;-77
2021/12/16 19:04:36;;;;;;;64.88;27.02;;;;;;;8.25;84.28;102766.25;8657582;33;21712;-75
2021/12/16 19:09:44;;;;;;;65.63;27.42;;;;;;;8.23;84.07;102764.53;8656980;33;20587;-76
2021/12/16 19:14:51;;;;;;;55.95;25.08;;;;;;;8.15;84.26;102764.81;8656235;33;20184;-77
2021/12/16 19:19:57;;;;;;;60.80;26.90;;;;;;;8.15;84.14;102762.16;8656103;33;20732;-76
2021/12/16 19:25:00;;;;;;;58.80;27.00;;;;;;;8.18;84.22;102762.03;8656513;33;20274;-76
2021/12/16 19:30:07;;;;;;;59.55;25.38;;;;;;;8.22;84.14;102769.03;8655839;33;21407;-77
2021/12/16 19:35:14;;;;;;;63.08;27.98;;;;;;;8.26;84.18;102772.50;8660463;33;20216;-76
2021/12/16 19:40:22;;;;;;;61.63;26.20;;;;;;;8.24;84.12;102771.66;8662100;33;20523;-75
2021/12/16 19:45:28;;;;;;;63.35;26.88;;;;;;;8.19;84.13;102779.84;8661530;33;20211;-76
2021/12/16 19:50:37;;;;;;;66.32;25.95;;;;;;;8.23;84.16;102786.88;8661976;33;20133;-76
2021/12/16 19:55:40;;;;;;;64.93;27.05;;;;;;;8.22;84.04;102785.09;8684858;33;20891;-76
2021/12/16 20:00:49;;;;;;;65.93;28.13;;;;;;;8.23;83.95;102796.69;8683413;33;20189;-77
2021/12/16 20:05:57;;;;;;;70.68;28.52;;;;;;;8.24;84.13;102799.31;8665775;33;20195;-77
2021/12/16 20:11:02;;;;;;;59.58;26.55;;;;;;;8.29;84.10;102794.69;8663109;33;20690;-77
2021/12/16 20:16:11;;;;;;;73.63;29.60;;;;;;;8.32;84.11;102796.41;8662227;33;20191;-76
2021/12/16 20:21:20;;;;;;;55.67;26.75;;;;;;;8.31;84.01;102790.16;8661812;33;20148;-78
2021/12/16 20:26:31;;;;;;;60.13;27.67;;;;;;;8.30;83.99;102787.53;8661473;33;20519;-77
2021/12/16 20:31:43;;;;;;;59.20;25.92;;;;;;;8.23;83.75;102797.59;8660652;33;20253;-76
2021/12/16 20:36:53;;;;;;;64.55;27.45;;;;;;;8.22;84.13;102795.81;8660711;33;20448;-77
2021/12/16 20:41:59;;;;;;;67.82;28.38;;;;;;;8.22;83.95;102785.09;8661814;33;20180;-76
2021/12/16 20:47:09;;;;;;;63.85;27.42;;;;;;;8.18;83.94;102780.78;8660488;33;20275;-77
2021/12/16 20:52:20;;;;;;;60.10;26.85;;;;;;;8.13;83.92;102786.28;8657155;33;20179;-77
2021/12/16 20:57:26;;;;;;;63.72;26.70;;;;;;;8.11;83.96;102796.16;8652629;33;20149;-77
2021/12/16 21:02:34;;;;;;;66.68;27.90;;;;;;;8.17;84.22;102785.28;8659550;33;20246;-76
2021/12/16 21:07:39;;;;;;;63.60;27.73;;;;;;;8.18;84.11;102789.69;8660112;33;20203;-77
2021/12/16 21:12:42;;;;;;;61.17;27.25;;;;;;;8.17;84.32;102798.66;8658977;33;20689;-77
2021/12/16 21:17:48;;;;;;;64.40;26.85;;;;;;;8.13;84.14;102788.97;8656353;33;20185;-76
2021/12/16 21:22:54;;;;;;;63.80;28.13;;;;;;;8.13;84.20;102783.59;8647271;33;20953;-76
2021/12/16 21:28:00;;;;;;;63.22;28.00;;;;;;;8.14;84.12;102773.75;8660432;33;20144;-76
2021/12/16 21:33:07;;;;;;;56.22;25.00;;;;;;;8.09;84.17;102776.63;8650032;33;20240;-77
2021/12/16 21:38:13;;;;;;;64.82;27.38;;;;;;;8.04;84.42;102783.91;8657974;33;20202;-76
2021/12/16 21:43:16;;;;;;;65.80;27.23;;;;;;;8.06;84.22;102783.84;8659184;33;20612;-77
2021/12/16 21:48:20;;;;;;;62.75;28.23;;;;;;;8.04;84.34;102783.91;8659575;33;20177;-76
2021/12/16 21:53:26;;;;;;;62.17;26.35;;;;;;;7.99;84.58;102785.84;8655122;33;20245;-77
2021/12/16 21:58:34;;;;;;;63.20;26.50;;;;;;;7.99;84.46;102788.53;8658987;33;20238;-76
2021/12/16 22:03:41;;;;;;;53.90;25.70;;;;;;;7.92;84.83;102793.19;8657368;33;20273;-76
2021/12/16 22:08:45;;;;;;;67.53;26.63;;;;;;;7.99;84.58;102791.22;8656757;33;20260;-77
2021/12/16 22:13:50;;;;;;;68.55;27.05;;;;;;;8.02;84.25;102787.56;8658128;33;20286;-77
2021/12/16 22:18:55;;;;;;;63.78;27.70;;;;;;;8.01;84.57;102792.06;8657333;33;20141;-76
2021/12/16 22:24:01;;;;;;;60.17;24.85;;;;;;;8.01;84.48;102799.19;8657251;33;20226;-77
2021/12/16 22:29:05;;;;;;;62.22;25.80;;;;;;;8.06;84.25;102805.25;8656960;33;20311;-76
2021/12/16 22:34:12;;;;;;;58.30;25.50;;;;;;;8.08;84.37;102809.66;8649019;33;20140;-76
2021/12/16 22:39:18;;;;;;;58.25;25.38;;;;;;;8.07;84.45;102813.25;8657691;33;20193;-77
2021/12/16 22:44:21;;;;;;;56.85;25.33;;;;;;;8.13;84.37;102828.25;8667298;33;20282;-76
2021/12/16 22:49:25;;;;;;;59.70;27.25;;;;;;;8.16;83.99;102830.81;8658218;33;20428;-76
2021/12/16 22:54:29;;;;;;;69.35;29.70;;;;;;;8.13;84.11;102826.44;8659012;33;20195;-77
2021/12/16 22:59:42;;;;;;;59.83;25.65;;;;;;;8.01;83.83;102818.81;8657798;33;20550;-77
2021/12/16 23:04:46;;;;;;;56.78;24.98;;;;;;;7.98;83.90;102810.88;8657260;33;21465;-77
2021/12/16 23:09:51;;;;;;;62.40;25.95;;;;;;;7.97;83.75;102811.78;8656692;33;20643;-77
2021/12/16 23:14:57;;;;;;;57.65;25.65;;;;;;;7.94;83.94;102802.06;8657460;33;20561;-77
2021/12/16 23:25:32;;;;;;;53.45;22.98;;;;;;;7.89;83.93;102797.78;8656898;33;20145;-78
2021/12/16 23:30:36;;;;;;;57.55;24.05;;;;;;;7.81;84.25;102799.81;8655488;33;20244;-77
2021/12/16 23:35:40;;;;;;;57.88;24.90;;;;;;;7.81;84.34;102800.69;8656450;33;20180;-77
2021/12/16 23:40:46;;;;;;;54.83;26.35;;;;;;;7.87;84.60;102803.19;8656124;33;20172;-77
2021/12/16 23:46:11;;;;;;;54.70;25.08;;;;;;;7.89;84.17;102781.72;8656342;33;20190;-77
2021/12/16 23:56:53;;;;;;;63.17;25.70;;;;;;;7.74;84.15;102780.41;8514365;34;20182;-77
